Time;durP1;ratioP1;P1;durP2;ratioP2;P2;SDS_P1;SDS_P2;PMS_P1;PMS_P2;Temp;Humidity;BMP_temperature;BMP_pressure;BME280_temperature;BME280_humidity;BME280_pressure;Samples;Min_cycle;Max_cycle;Signal;HPM_P1;HPM_P2
2024/01/05 00:02:04;;;;;;;11.40;6.68;;;2.70;99.90;;;;;;5076772;28;20341;-69
2024/01/05 00:04:31;;;;;;;8.90;7.53;;;2.70;99.90;;;;;;5080968;28;20211;-68
2024/01/05 00:06:58;;;;;;;12.73;7.90;;;2.70;99.90;;;;;;5085589;28;20205;-68
2024/01/05 00:09:26;;;;;;;12.52;7.30;;;2.70;99.90;;;;;;5074511;28;20205;-68
2024/01/05 00:11:53;;;;;;;10.05;6.82;;;2.70;99.90;;;;;;5074295;28;20221;-68
2024/01/05 00:14:20;;;;;;;10.10;7.07;;;2.70;99.90;;;;;;5074015;28;20201;-68
2024/01/05 00:16:47;;;;;;;12.15;7.97;;;2.70;99.90;;;;;;5074859;28;20558;-68
2024/01/05 00:19:14;;;;;;;12.48;8.25;;;2.70;99.90;;;;;;5074334;28;20205;-68
2024/01/05 00:21:40;;;;;;;10.52;7.28;;;2.70;99.90;;;;;;5074736;28;20221;-68
2024/01/05 00:24:08;;;;;;;10.13;8.13;;;2.70;99.90;;;;;;5074225;28;20211;-68
2024/01/05 00:26:41;;;;;;;9.85;6.93;;;2.70;99.90;;;;;;5074307;28;20215;-67
2024/01/05 00:29:07;;;;;;;12.25;7.35;;;2.70;99.90;;;;;;5077582;28;20268;-68
2024/01/05 00:31:34;;;;;;;12.68;8.00;;;2.70;99.90;;;;;;5078888;28;20225;-67
2024/01/05 00:34:01;;;;;;;13.00;8.20;;;2.80;99.90;;;;;;5078552;28;20287;-68
2024/01/05 00:36:28;;;;;;;13.40;8.07;;;2.70;99.90;;;;;;5078092;28;20604;-68
2024/01/05 00:38:55;;;;;;;10.00;7.43;;;2.70;99.90;;;;;;5078665;28;20595;-68
2024/01/05 00:41:21;;;;;;;10.40;7.78;;;2.70;99.90;;;;;;5079192;28;20618;-68
2024/01/05 00:43:49;;;;;;;11.35;6.95;;;2.80;99.90;;;;;;5077927;28;20204;-67
2024/01/05 00:46:16;;;;;;;12.98;7.40;;;2.80;99.90;;;;;;5078205;28;20205;-68
2024/01/05 00:48:43;;;;;;;8.80;7.10;;;2.80;99.90;;;;;;5077870;28;20201;-67
2024/01/05 00:51:10;;;;;;;12.85;7.18;;;2.80;99.90;;;;;;5077617;28;20221;-68
2024/01/05 00:53:37;;;;;;;12.20;7.30;;;2.80;99.90;;;;;;5079020;28;20228;-69
2024/01/05 00:56:05;;;;;;;14.02;9.02;;;2.80;99.90;;;;;;5077871;28;20254;-68
2024/01/05 00:58:32;;;;;;;15.25;8.27;;;2.80;99.90;;;;;;5077469;28;20294;-68
2024/01/05 01:01:00;;;;;;;12.90;7.95;;;2.80;99.90;;;;;;5076782;28;20205;-66
2024/01/05 01:03:27;;;;;;;10.88;7.60;;;2.90;99.90;;;;;;5076703;28;20732;-69
2024/01/05 01:05:53;;;;;;;19.65;9.73;;;2.80;99.90;;;;;;5076865;28;20595;-67
2024/01/05 01:08:20;;;;;;;12.77;8.75;;;2.90;99.90;;;;;;5076675;28;20201;-68
2024/01/05 01:10:47;;;;;;;11.35;8.35;;;2.90;99.90;;;;;;5076608;28;20208;-67
2024/01/05 01:13:14;;;;;;;13.90;8.50;;;2.90;99.90;;;;;;5076809;28;20291;-68
2024/01/05 01:15:41;;;;;;;14.05;9.48;;;2.90;99.90;;;;;;5076959;28;20201;-68
2024/01/05 01:18:09;;;;;;;13.10;8.20;;;2.90;99.90;;;;;;5077148;28;20540;-68
2024/01/05 01:20:35;;;;;;;13.30;7.88;;;2.90;99.90;;;;;;5076855;28;20205;-68
2024/01/05 01:23:02;;;;;;;11.95;9.10;;;3.00;99.90;;;;;;5079519;28;20225;-68
2024/01/05 01:25:29;;;;;;;14.10;9.07;;;3.00;99.90;;;;;;5081472;28;20197;-68
2024/01/05 01:27:55;;;;;;;13.82;8.98;;;3.00;99.90;;;;;;5076919;28;20213;-68
2024/01/05 01:30:22;;;;;;;11.10;8.20;;;3.00;99.90;;;;;;5076934;28;20279;-68
2024/01/05 01:32:49;;;;;;;11.40;8.32;;;3.00;99.90;;;;;;5083071;28;20227;-68
2024/01/05 01:35:17;;;;;;;12.65;7.93;;;3.00;99.90;;;;;;5077309;28;20262;-68
2024/01/05 01:37:43;;;;;;;13.57;8.13;;;3.00;99.90;;;;;;5076681;28;20721;-68
2024/01/05 01:40:11;;;;;;;13.70;8.55;;;3.00;99.90;;;;;;5076368;28;20584;-68
2024/01/05 01:42:38;;;;;;;15.98;7.65;;;3.00;99.90;;;;;;5078137;28;20227;-67
2024/01/05 01:45:06;;;;;;;17.10;8.30;;;3.10;99.90;;;;;;5077065;28;20203;-67
2024/01/05 01:47:33;;;;;;;10.65;7.10;;;3.10;99.90;;;;;;5079347;28;20197;-68
2024/01/05 01:50:00;;;;;;;15.10;8.63;;;3.10;99.90;;;;;;5077847;28;20197;-69
2024/01/05 01:52:28;;;;;;;11.57;7.78;;;3.10;99.90;;;;;;5077195;28;20252;-67
2024/01/05 01:54:55;;;;;;;14.82;8.15;;;3.20;99.90;;;;;;5076388;28;20207;-68
2024/01/05 01:57:23;;;;;;;18.55;8.90;;;3.20;99.90;;;;;;5076010;28;20204;-67
2024/01/05 01:59:50;;;;;;;15.55;9.05;;;3.20;99.90;;;;;;5075644;28;20671;-67
2024/01/05 02:02:17;;;;;;;14.32;9.00;;;3.20;99.90;;;;;;5075565;28;20239;-67
2024/01/05 02:04:45;;;;;;;12.90;7.70;;;3.20;99.90;;;;;;5076299;28;20205;-68
2024/01/05 02:07:12;;;;;;;13.70;9.15;;;3.20;99.90;;;;;;5076350;28;20689;-66
2024/01/05 02:09:40;;;;;;;13.77;7.65;;;3.20;99.90;;;;;;5075982;28;20201;-67
2024/01/05 02:12:07;;;;;;;12.85;7.70;;;3.10;99.90;;;;;;5075294;28;20224;-67
2024/01/05 02:14:34;;;;;;;14.13;7.30;;;3.20;99.90;;;;;;5075950;28;20227;-67
2024/01/05 02:17:01;;;;;;;11.55;8.27;;;3.10;99.90;;;;;;5075955;28;20208;-68
2024/01/05 02:19:28;;;;;;;14.30;9.00;;;3.10;99.90;;;;;;5075585;28;20221;-68
2024/01/05 02:21:59;;;;;;;12.18;7.80;;;3.10;99.90;;;;;;5075490;28;20224;-67
2024/01/05 02:24:27;;;;;;;15.25;9.18;;;3.10;99.90;;;;;;5075204;28;20185;-68
2024/01/05 02:26:53;;;;;;;16.00;8.15;;;3.10;99.90;;;;;;5075026;28;20671;-68
2024/01/05 02:29:21;;;;;;;13.45;8.27;;;3.10;99.90;;;;;;5075199;28;20639;-68
2024/01/05 02:31:49;;;;;;;14.82;8.77;;;3.10;99.90;;;;;;5074975;28;20582;-68
2024/01/05 02:34:16;;;;;;;15.50;9.77;;;3.00;99.90;;;;;;5075134;28;20204;-68
2024/01/05 02:36:43;;;;;;;16.55;8.48;;;3.00;99.90;;;;;;5075161;28;20252;-68
2024/01/05 02:39:11;;;;;;;16.10;8.90;;;3.00;99.90;;;;;;5074581;28;20221;-67
2024/01/05 02:41:39;;;;;;;22.20;9.07;;;3.10;99.90;;;;;;5075293;28;20225;-68
2024/01/05 02:44:06;;;;;;;16.65;9.40;;;3.10;99.90;;;;;;5074753;28;20574;-68
2024/01/05 02:46:33;;;;;;;13.73;9.43;;;3.10;99.90;;;;;;5074521;28;20231;-67
2024/01/05 02:49:00;;;;;;;16.38;8.65;;;3.10;99.90;;;;;;5074972;28;20197;-67
2024/01/05 02:51:27;;;;;;;16.42;9.38;;;3.10;99.90;;;;;;5073998;28;20653;-68
2024/01/05 02:53:54;;;;;;;13.10;8.18;;;3.00;99.90;;;;;;5075118;28;20209;-67
2024/01/05 02:56:22;;;;;;;13.27;8.65;;;3.00;99.90;;;;;;5075417;28;20208;-67
2024/01/05 02:58:50;;;;;;;14.27;8.38;;;3.00;99.90;;;;;;5075197;28;20224;-66
2024/01/05 03:01:17;;;;;;;12.95;8.55;;;3.00;99.90;;;;;;5075284;28;20229;-67
2024/01/05 03:03:45;;;;;;;14.70;9.23;;;3.00;99.90;;;;;;5076092;28;20189;-68
2024/01/05 03:06:12;;;;;;;13.07;9.30;;;3.00;99.90;;;;;;5075228;28;20201;-68
2024/01/05 03:08:39;;;;;;;16.75;9.45;;;3.00;99.90;;;;;;5074757;28;20209;-67
2024/01/05 03:11:06;;;;;;;17.40;10.75;;;3.00;99.90;;;;;;5075589;28;20227;-67
2024/01/05 03:13:33;;;;;;;18.23;9.70;;;2.90;99.90;;;;;;5077308;28;20215;-68
2024/01/05 03:16:01;;;;;;;14.25;9.88;;;2.90;99.90;;;;;;5078929;28;20201;-67
2024/01/05 03:18:28;;;;;;;13.45;8.05;;;2.90;99.90;;;;;;5077012;28;20274;-67
2024/01/05 03:20:54;;;;;;;13.93;8.40;;;2.90;99.90;;;;;;5077519;28;20208;-68
2024/01/05 03:23:21;;;;;;;13.20;8.30;;;2.90;99.90;;;;;;5077924;28;20200;-68
2024/01/05 03:25:50;;;;;;;17.13;8.43;;;2.90;99.90;;;;;;5080951;28;20200;-67
2024/01/05 03:28:17;;;;;;;18.30;9.70;;;2.90;99.90;;;;;;5081862;28;20212;-67
2024/01/05 03:30:44;;;;;;;15.77;9.35;;;2.90;99.90;;;;;;5082866;28;20364;-66
2024/01/05 03:33:12;;;;;;;14.90;8.45;;;2.90;99.90;;;;;;5080976;28;20212;-68
2024/01/05 03:35:41;;;;;;;12.10;7.97;;;2.90;99.90;;;;;;5076444;28;20197;-66
2024/01/05 03:38:07;;;;;;;13.10;8.95;;;2.90;99.90;;;;;;5074583;28;20219;-67
2024/01/05 03:40:34;;;;;;;14.80;9.95;;;2.90;99.90;;;;;;5074305;28;20197;-67
2024/01/05 03:43:01;;;;;;;17.00;11.25;;;2.90;99.90;;;;;;5073894;28;20228;-68
2024/01/05 03:45:28;;;;;;;14.45;8.52;;;2.90;99.90;;;;;;5073583;28;20201;-67
2024/01/05 03:47:54;;;;;;;15.50;9.55;;;2.90;99.90;;;;;;5073611;28;20204;-68
2024/01/05 03:50:23;;;;;;;12.93;8.90;;;2.90;99.90;;;;;;5074380;28;20207;-67
2024/01/05 03:52:49;;;;;;;14.38;9.05;;;2.90;99.90;;;;;;5079486;28;20228;-67
2024/01/05 03:55:16;;;;;;;17.58;10.20;;;2.80;99.90;;;;;;5076554;28;20283;-67
2024/01/05 03:57:43;;;;;;;18.02;8.80;;;2.80;99.90;;;;;;5075787;28;20213;-68
2024/01/05 04:00:11;;;;;;;14.40;9.13;;;2.90;99.90;;;;;;5076211;28;20367;-67
2024/01/05 04:02:38;;;;;;;16.33;9.32;;;2.80;99.90;;;;;;5077021;28;20229;-67
2024/01/05 04:05:06;;;;;;;15.10;8.60;;;2.80;99.90;;;;;;5077505;28;20205;-67
2024/01/05 04:07:34;;;;;;;20.10;10.75;;;2.80;99.90;;;;;;5076942;28;20205;-67
2024/01/05 04:12:53;;;;;;;16.52;9.40;;;2.80;99.90;;;;;;5095403;27;20558;-67
2024/01/05 04:15:20;;;;;;;17.33;9.43;;;2.80;99.90;;;;;;5095832;28;20209;-67
2024/01/05 04:17:47;;;;;;;14.48;8.20;;;2.80;99.90;;;;;;5093607;28;20197;-67
2024/01/05 04:20:14;;;;;;;19.10;10.50;;;2.80;99.90;;;;;;5093061;28;20196;-68
2024/01/05 04:22:40;;;;;;;18.70;10.55;;;2.80;99.90;;;;;;5093697;28;20694;-67
2024/01/05 04:25:08;;;;;;;13.95;9.60;;;2.80;99.90;;;;;;5093244;28;20196;-67
2024/01/05 04:27:34;;;;;;;17.80;9.48;;;2.90;99.90;;;;;;5092479;28;20666;-67
2024/01/05 04:30:04;;;;;;;17.05;9.43;;;2.80;99.90;;;;;;5091872;28;20200;-68
2024/01/05 04:32:31;;;;;;;19.80;9.80;;;2.80;99.90;;;;;;5091974;28;20250;-68
2024/01/05 04:34:58;;;;;;;16.20;9.70;;;2.90;99.90;;;;;;5092288;28;20289;-67
2024/01/05 04:37:25;;;;;;;17.00;10.55;;;2.90;99.90;;;;;;5092094;28;20299;-67
2024/01/05 04:39:52;;;;;;;13.27;9.23;;;2.80;99.90;;;;;;5092882;28;20197;-66
2024/01/05 04:42:19;;;;;;;15.45;9.68;;;2.80;99.90;;;;;;5091192;28;20212;-68
2024/01/05 04:44:45;;;;;;;15.90;9.90;;;2.90;99.90;;;;;;5090596;28;20590;-67
2024/01/05 04:47:14;;;;;;;17.48;11.27;;;2.90;99.90;;;;;;5090469;28;20219;-67
2024/01/05 04:49:40;;;;;;;16.92;9.57;;;2.90;99.90;;;;;;5090667;28;20200;-68
2024/01/05 04:52:07;;;;;;;15.20;9.02;;;2.90;99.90;;;;;;5090435;28;20248;-67
2024/01/05 04:54:35;;;;;;;15.15;9.82;;;2.90;99.90;;;;;;5090682;28;20213;-67
2024/01/05 04:57:02;;;;;;;15.07;10.00;;;2.90;99.90;;;;;;5090575;28;20205;-67
2024/01/05 04:59:29;;;;;;;14.30;8.80;;;2.90;99.90;;;;;;5090452;28;20200;-67
2024/01/05 05:01:56;;;;;;;14.38;9.00;;;2.90;99.90;;;;;;5089939;28;20710;-66
2024/01/05 05:04:24;;;;;;;14.35;9.50;;;2.90;99.90;;;;;;5089944;28;20200;-67
2024/01/05 05:06:51;;;;;;;16.95;10.07;;;2.90;99.90;;;;;;5089691;28;20205;-67
2024/01/05 05:09:17;;;;;;;16.83;10.05;;;2.90;99.90;;;;;;5089958;28;20214;-68
2024/01/05 05:11:44;;;;;;;14.27;9.65;;;2.90;99.90;;;;;;5089747;28;20225;-66
2024/01/05 05:14:11;;;;;;;13.50;9.25;;;2.90;99.90;;;;;;5089811;28;20207;-67
2024/01/05 05:16:39;;;;;;;16.95;10.43;;;2.90;99.90;;;;;;5089587;28;20694;-67
2024/01/05 05:19:06;;;;;;;14.07;9.27;;;2.90;99.90;;;;;;5090111;28;20205;-66
2024/01/05 05:21:34;;;;;;;17.27;10.95;;;2.90;99.90;;;;;;5089581;28;20228;-68
2024/01/05 05:24:01;;;;;;;12.48;8.85;;;2.90;99.90;;;;;;5077656;28;20205;-68
2024/01/05 05:26:28;;;;;;;17.92;10.90;;;2.90;99.90;;;;;;5076509;28;20205;-67
2024/01/05 05:28:55;;;;;;;19.30;12.30;;;2.90;99.90;;;;;;5076283;28;20215;-68
2024/01/05 05:31:21;;;;;;;19.23;12.05;;;3.00;99.90;;;;;;5076272;28;20225;-67
2024/01/05 05:33:48;;;;;;;17.25;10.93;;;3.00;99.90;;;;;;5076083;28;20205;-68
2024/01/05 05:36:15;;;;;;;19.27;12.02;;;3.00;99.90;;;;;;5076401;28;20201;-67
2024/01/05 05:38:43;;;;;;;22.58;12.57;;;3.00;99.90;;;;;;5075920;28;20201;-68
2024/01/05 05:41:10;;;;;;;19.35;13.02;;;3.00;99.90;;;;;;5075560;28;20220;-67
2024/01/05 05:43:37;;;;;;;21.23;12.50;;;3.10;99.90;;;;;;5075887;28;20211;-66
2024/01/05 05:46:04;;;;;;;25.33;12.38;;;3.10;99.90;;;;;;5075915;28;20201;-68
2024/01/05 05:48:31;;;;;;;21.80;12.65;;;3.10;99.90;;;;;;5076319;28;20205;-67
2024/01/05 05:50:58;;;;;;;19.25;11.63;;;3.10;99.90;;;;;;5075873;28;20208;-67
2024/01/05 05:53:25;;;;;;;19.40;13.20;;;3.10;99.90;;;;;;5075493;28;20623;-68
2024/01/05 05:55:53;;;;;;;24.58;13.50;;;3.20;99.90;;;;;;5075523;28;20201;-67
2024/01/05 05:58:21;;;;;;;20.60;13.95;;;3.20;99.90;;;;;;5075525;28;20275;-67
2024/01/05 06:00:48;;;;;;;19.48;12.25;;;3.20;99.90;;;;;;5075380;28;20209;-67
2024/01/05 06:03:15;;;;;;;19.35;12.35;;;3.20;99.90;;;;;;5075459;28;20212;-67
2024/01/05 06:05:42;;;;;;;19.05;13.00;;;3.20;99.90;;;;;;5075254;28;20212;-68
2024/01/05 06:08:09;;;;;;;20.55;12.90;;;3.30;99.90;;;;;;5075281;28;20301;-68
2024/01/05 06:10:35;;;;;;;20.15;12.38;;;3.30;99.90;;;;;;5075211;28;20208;-68
2024/01/05 06:13:04;;;;;;;23.33;14.27;;;3.30;99.90;;;;;;5074815;28;20229;-68
2024/01/05 06:15:31;;;;;;;21.40;13.00;;;3.30;99.90;;;;;;5075039;28;20207;-68
2024/01/05 06:17:58;;;;;;;19.80;12.32;;;3.30;99.90;;;;;;5075044;28;20209;-66
2024/01/05 06:20:24;;;;;;;23.27;14.30;;;3.30;99.90;;;;;;5075031;28;20205;-68
2024/01/05 06:22:52;;;;;;;19.50;12.40;;;3.30;99.90;;;;;;5075063;28;20225;-67
2024/01/05 06:25:18;;;;;;;20.52;11.50;;;3.30;99.90;;;;;;5075376;28;20204;-68
2024/01/05 06:27:45;;;;;;;18.30;11.75;;;3.40;99.90;;;;;;5074909;28;20769;-67
2024/01/05 06:30:14;;;;;;;19.05;12.73;;;3.40;99.90;;;;;;5074471;28;20527;-68
2024/01/05 06:32:41;;;;;;;18.17;13.32;;;3.40;99.90;;;;;;5074820;28;20592;-67
2024/01/05 06:35:08;;;;;;;22.75;13.10;;;3.40;99.90;;;;;;5073941;28;20584;-68
2024/01/05 06:37:35;;;;;;;18.80;12.00;;;3.40;99.90;;;;;;5075003;28;20201;-68
2024/01/05 06:40:02;;;;;;;27.83;12.90;;;3.50;99.90;;;;;;5075457;28;20203;-67
2024/01/05 06:42:28;;;;;;;21.58;13.38;;;3.50;99.90;;;;;;5074659;28;20222;-67
2024/01/05 06:44:55;;;;;;;21.00;11.85;;;3.50;99.90;;;;;;5074657;28;20667;-67
2024/01/05 06:47:25;;;;;;;20.33;11.75;;;3.50;99.90;;;;;;5074809;28;20594;-67
2024/01/05 06:49:52;;;;;;;18.80;11.65;;;3.50;99.90;;;;;;5075225;28;20254;-68
2024/01/05 06:52:18;;;;;;;19.33;12.35;;;3.50;99.90;;;;;;5074708;28;20227;-68
2024/01/05 06:54:45;;;;;;;18.45;11.00;;;3.50;99.90;;;;;;5074927;28;20208;-67
2024/01/05 06:57:12;;;;;;;20.10;12.93;;;3.60;99.90;;;;;;5074919;28;20207;-68
2024/01/05 06:59:39;;;;;;;23.23;11.70;;;3.60;99.90;;;;;;5074583;28;20207;-68
2024/01/05 07:02:06;;;;;;;24.02;12.77;;;3.60;99.90;;;;;;5076317;28;20239;-68
2024/01/05 07:04:34;;;;;;;18.35;11.40;;;3.60;99.90;;;;;;5082396;28;20209;-69
2024/01/05 07:07:01;;;;;;;21.02;12.68;;;3.60;99.90;;;;;;5078955;28;20635;-69
2024/01/05 07:09:28;;;;;;;24.80;12.82;;;3.60;99.90;;;;;;5077748;28;20300;-67
2024/01/05 07:11:54;;;;;;;21.52;12.70;;;3.60;99.90;;;;;;5078796;28;20319;-68
2024/01/05 07:14:21;;;;;;;19.15;10.55;;;3.70;99.90;;;;;;5082124;28;20277;-68
2024/01/05 07:16:48;;;;;;;22.00;12.48;;;3.70;99.90;;;;;;5083132;28;20295;-67
2024/01/05 07:19:15;;;;;;;19.05;11.02;;;3.70;99.90;;;;;;5080856;28;20270;-68
2024/01/05 07:21:44;;;;;;;18.45;11.30;;;3.70;99.90;;;;;;5081219;28;20715;-68
2024/01/05 07:24:13;;;;;;;20.15;11.55;;;3.70;99.90;;;;;;5078723;28;20662;-67
2024/01/05 07:26:40;;;;;;;20.38;12.43;;;3.70;99.90;;;;;;5081211;28;20593;-69
2024/01/05 07:29:07;;;;;;;20.08;10.35;;;3.70;99.90;;;;;;5085347;28;20213;-67
2024/01/05 07:31:34;;;;;;;21.42;13.73;;;3.80;99.90;;;;;;5083403;28;20225;-67
2024/01/05 07:34:02;;;;;;;19.83;10.63;;;3.80;99.90;;;;;;5076590;28;20291;-67
2024/01/05 07:36:29;;;;;;;19.73;11.63;;;3.80;99.90;;;;;;5074941;28;20207;-68
2024/01/05 07:38:59;;;;;;;17.45;11.25;;;3.80;99.90;;;;;;5075195;28;20196;-68
2024/01/05 07:41:26;;;;;;;19.05;11.38;;;3.80;99.90;;;;;;5074227;28;20221;-67
2024/01/05 07:43:53;;;;;;;15.77;10.15;;;3.80;99.90;;;;;;5074822;28;20578;-66
2024/01/05 07:46:22;;;;;;;18.60;11.05;;;3.90;99.90;;;;;;5074350;28;20201;-66
2024/01/05 07:48:48;;;;;;;18.85;10.90;;;3.90;99.90;;;;;;5075312;28;20228;-67
2024/01/05 07:51:20;;;;;;;15.07;8.90;;;3.90;99.90;;;;;;5075162;28;20221;-67
2024/01/05 07:53:48;;;;;;;16.90;9.20;;;3.90;99.90;;;;;;5075139;28;20201;-67
2024/01/05 07:56:17;;;;;;;17.65;10.40;;;3.90;99.90;;;;;;5075484;28;20228;-64
2024/01/05 07:58:44;;;;;;;15.85;9.38;;;4.00;99.90;;;;;;5075674;28;20212;-68
2024/01/05 08:01:15;;;;;;;15.35;9.60;;;4.00;99.90;;;;;;5075176;28;20221;-67
2024/01/05 08:03:42;;;;;;;16.75;10.10;;;4.00;99.90;;;;;;5075373;28;20190;-68
2024/01/05 08:06:13;;;;;;;15.80;9.98;;;4.10;99.90;;;;;;5076267;28;20276;-68
2024/01/05 08:08:41;;;;;;;17.02;10.15;;;4.10;99.90;;;;;;5075362;28;20188;-68
2024/01/05 08:11:07;;;;;;;18.63;10.77;;;4.10;99.90;;;;;;5074835;28;20601;-67
2024/01/05 08:13:36;;;;;;;17.65;10.65;;;4.10;99.90;;;;;;5075191;28;20332;-68
2024/01/05 08:16:03;;;;;;;17.48;10.10;;;4.10;99.90;;;;;;5074589;28;20632;-68
2024/01/05 08:18:30;;;;;;;16.88;11.15;;;4.10;99.90;;;;;;5076318;28;20205;-68
2024/01/05 08:20:57;;;;;;;19.90;11.80;;;4.10;99.90;;;;;;5075964;28;20212;-68
2024/01/05 08:23:24;;;;;;;18.90;11.60;;;4.20;99.90;;;;;;5074999;28;20204;-68
2024/01/05 08:25:50;;;;;;;18.20;9.90;;;4.20;99.90;;;;;;5075406;28;20205;-66
2024/01/05 08:28:17;;;;;;;16.70;10.00;;;4.20;99.90;;;;;;5076496;28;20292;-68
2024/01/05 08:30:45;;;;;;;18.55;11.45;;;4.20;99.90;;;;;;5076319;28;20259;-69
2024/01/05 08:33:13;;;;;;;14.93;9.88;;;4.20;99.90;;;;;;5075113;28;20252;-67
2024/01/05 08:35:40;;;;;;;18.55;10.20;;;4.20;99.90;;;;;;5075473;28;20642;-68
2024/01/05 08:38:07;;;;;;;18.63;10.93;;;4.20;99.90;;;;;;5076134;28;20215;-70
2024/01/05 08:40:34;;;;;;;17.58;11.30;;;4.20;99.90;;;;;;5075481;28;20201;-68
2024/01/05 08:43:02;;;;;;;16.58;10.35;;;4.20;99.90;;;;;;5075532;28;20221;-67
2024/01/05 08:45:29;;;;;;;17.88;11.18;;;4.30;99.90;;;;;;5074896;28;20205;-67
2024/01/05 08:47:57;;;;;;;17.33;11.43;;;4.30;99.90;;;;;;5080939;28;20284;-68
2024/01/05 08:50:24;;;;;;;13.38;8.95;;;4.30;99.90;;;;;;5090350;28;20201;-68
2024/01/05 08:52:51;;;;;;;17.52;10.30;;;4.30;99.90;;;;;;5084499;28;20336;-68
2024/01/05 08:55:18;;;;;;;14.73;9.60;;;4.30;99.90;;;;;;5076833;28;20205;-69
2024/01/05 08:57:47;;;;;;;13.82;9.20;;;4.30;99.90;;;;;;5075741;28;20687;-68
2024/01/05 09:00:14;;;;;;;15.02;8.75;;;4.30;99.90;;;;;;5078614;28;20204;-67
2024/01/05 09:02:40;;;;;;;14.07;8.95;;;4.30;99.90;;;;;;5078072;28;20217;-67
2024/01/05 09:05:09;;;;;;;15.27;10.32;;;4.30;99.90;;;;;;5078160;28;20205;-66
2024/01/05 09:07:36;;;;;;;16.02;10.95;;;4.20;99.90;;;;;;5077876;28;20201;-68
2024/01/05 09:10:03;;;;;;;13.85;9.60;;;4.20;99.90;;;;;;5076502;28;20667;-67
2024/01/05 09:12:29;;;;;;;14.88;10.40;;;4.30;99.90;;;;;;5077237;28;20423;-66
2024/01/05 09:14:56;;;;;;;16.13;10.40;;;4.30;99.90;;;;;;5078598;28;20201;-65
2024/01/05 09:17:23;;;;;;;16.13;9.30;;;4.30;99.90;;;;;;5078031;28;20737;-66
2024/01/05 09:19:50;;;;;;;15.25;9.80;;;4.30;99.90;;;;;;5077836;28;20681;-67
2024/01/05 09:22:18;;;;;;;12.23;9.05;;;4.40;99.90;;;;;;5077618;28;20221;-66
2024/01/05 09:24:45;;;;;;;12.20;9.05;;;4.40;99.90;;;;;;5078308;28;20201;-65
2024/01/05 09:27:11;;;;;;;12.75;8.75;;;4.40;99.90;;;;;;5088921;28;20201;-65
2024/01/05 09:29:38;;;;;;;14.15;9.40;;;4.40;99.90;;;;;;5095081;28;20290;-68
2024/01/05 09:32:06;;;;;;;14.60;10.15;;;4.40;99.90;;;;;;5086593;28;20220;-65
2024/01/05 09:34:33;;;;;;;12.80;9.50;;;4.40;99.90;;;;;;5081436;28;20590;-64
2024/01/05 09:36:59;;;;;;;16.08;9.70;;;4.50;99.90;;;;;;5079074;28;20292;-63
2024/01/05 09:39:28;;;;;;;12.23;9.00;;;4.50;99.90;;;;;;5079439;28;20334;-65
2024/01/05 09:41:55;;;;;;;13.30;8.70;;;4.50;99.90;;;;;;5077808;28;20597;-66
2024/01/05 09:44:22;;;;;;;17.05;8.85;;;4.50;99.90;;;;;;5077164;28;20201;-64
2024/01/05 09:46:50;;;;;;;11.55;8.10;;;4.50;99.90;;;;;;5077374;28;20196;-64
2024/01/05 09:49:18;;;;;;;17.33;10.10;;;4.50;99.90;;;;;;5077496;28;20227;-65
2024/01/05 09:51:46;;;;;;;11.38;8.38;;;4.60;99.90;;;;;;5076885;28;20256;-64
2024/01/05 09:54:13;;;;;;;11.40;8.75;;;4.60;99.90;;;;;;5076426;28;20232;-63
2024/01/05 09:56:46;;;;;;;10.82;8.18;;;4.70;99.90;;;;;;5077154;28;20207;-63
2024/01/05 09:59:17;;;;;;;13.70;7.95;;;4.70;99.90;;;;;;5077256;28;20189;-64
2024/01/05 10:01:45;;;;;;;13.10;8.68;;;4.80;99.90;;;;;;5076990;28;20221;-65
2024/01/05 10:04:12;;;;;;;11.73;9.07;;;4.80;99.90;;;;;;5075963;28;20283;-65
2024/01/05 10:06:39;;;;;;;11.13;8.32;;;4.90;99.90;;;;;;5076607;28;20204;-64
2024/01/05 10:09:06;;;;;;;12.18;8.02;;;4.90;99.90;;;;;;5076564;28;20209;-65
2024/01/05 10:11:34;;;;;;;12.88;9.30;;;4.90;99.90;;;;;;5077283;28;20274;-65
2024/01/05 10:14:04;;;;;;;11.50;7.65;;;5.00;99.90;;;;;;5077366;28;20253;-65
2024/01/05 10:16:36;;;;;;;10.50;8.10;;;5.00;99.90;;;;;;5078407;28;20209;-66
2024/01/05 10:19:12;;;;;;;13.52;8.95;;;5.00;99.90;;;;;;5078123;28;20260;-64
2024/01/05 10:21:39;;;;;;;12.77;9.88;;;5.10;99.90;;;;;;5077438;28;20224;-65
2024/01/05 10:24:13;;;;;;;13.02;8.25;;;5.20;99.90;;;;;;5079057;28;20193;-65
2024/01/05 10:26:39;;;;;;;10.60;8.50;;;5.20;99.90;;;;;;5078147;28;20181;-66
2024/01/05 10:29:14;;;;;;;13.60;8.80;;;5.30;99.90;;;;;;5077227;28;20205;-66
2024/01/05 10:31:41;;;;;;;13.60;9.05;;;5.40;99.90;;;;;;5079782;28;20732;-66
2024/01/05 10:34:09;;;;;;;13.60;8.55;;;5.40;99.90;;;;;;5079705;28;20585;-66
2024/01/05 10:36:36;;;;;;;11.23;7.78;;;5.50;99.90;;;;;;5077373;28;20250;-65
2024/01/05 10:39:04;;;;;;;10.02;7.90;;;5.60;99.90;;;;;;5077189;28;20205;-65
2024/01/05 10:41:30;;;;;;;10.25;7.97;;;5.60;99.90;;;;;;5081255;28;20223;-66
2024/01/05 10:43:59;;;;;;;10.43;8.18;;;5.60;99.90;;;;;;5085832;28;20700;-66
2024/01/05 10:46:28;;;;;;;9.32;7.80;;;5.60;99.90;;;;;;5088089;28;20201;-65
2024/01/05 10:48:57;;;;;;;12.45;8.38;;;5.60;99.90;;;;;;5088716;28;20551;-66
2024/01/05 10:51:24;;;;;;;10.32;8.05;;;5.50;99.90;;;;;;5087993;28;20315;-67
2024/01/05 10:53:52;;;;;;;10.40;7.30;;;5.50;99.90;;;;;;5087107;28;20213;-67
2024/01/05 10:56:20;;;;;;;11.18;8.95;;;5.40;99.90;;;;;;5088412;28;20229;-64
2024/01/05 10:58:49;;;;;;;8.98;7.57;;;5.40;99.90;;;;;;5088726;28;20288;-66
2024/01/05 11:01:18;;;;;;;11.13;7.63;;;5.30;99.90;;;;;;5087156;28;20221;-67
2024/01/05 11:03:50;;;;;;;10.20;7.93;;;5.30;99.90;;;;;;5086972;28;20197;-65
2024/01/05 11:06:16;;;;;;;9.75;7.80;;;5.30;99.90;;;;;;5086959;28;20272;-64
2024/01/05 11:08:58;;;;;;;12.35;8.70;;;5.20;99.90;;;;;;5086072;28;20193;-67
2024/01/05 11:11:36;;;;;;;10.80;8.82;;;5.20;99.90;;;;;;5087611;28;20225;-66
2024/01/05 11:14:22;;;;;;;10.48;7.95;;;5.30;99.90;;;;;;5090493;28;20228;-67
2024/01/05 11:17:18;;;;;;;12.80;9.02;;;5.40;99.90;;;;;;5084555;28;20192;-66
2024/01/05 11:20:15;;;;;;;10.80;8.02;;;5.50;99.90;;;;;;5088728;28;20257;-66
2024/01/05 11:22:47;;;;;;;11.25;8.30;;;5.60;99.90;;;;;;5084458;28;20730;-66
2024/01/05 11:25:15;;;;;;;11.68;8.75;;;5.60;99.90;;;;;;5089671;28;20244;-67
2024/01/05 11:27:46;;;;;;;12.48;9.30;;;5.70;99.90;;;;;;5088878;28;20205;-67
2024/01/05 11:30:13;;;;;;;11.90;9.27;;;5.70;99.90;;;;;;5084763;28;20181;-66
2024/01/05 11:32:44;;;;;;;10.80;9.70;;;5.70;99.90;;;;;;5084608;28;20221;-67
2024/01/05 11:35:51;;;;;;;13.68;10.38;;;5.70;99.90;;;;;;5085785;28;20197;-66
2024/01/05 11:38:41;;;;;;;11.35;9.38;;;5.70;99.90;;;;;;5086067;28;20185;-66
2024/01/05 11:41:17;;;;;;;13.45;10.73;;;5.70;99.90;;;;;;5086214;28;20235;-65
2024/01/05 11:43:43;;;;;;;13.15;9.70;;;5.70;99.90;;;;;;5086076;28;20180;-65
2024/01/05 11:46:09;;;;;;;12.77;10.23;;;5.80;99.90;;;;;;5082868;28;20257;-65
2024/01/05 11:48:51;;;;;;;16.38;11.20;;;5.80;99.90;;;;;;5080117;28;20207;-65
2024/01/05 11:51:18;;;;;;;13.35;10.93;;;5.90;99.90;;;;;;5078486;28;20224;-65
2024/01/05 11:53:49;;;;;;;13.65;9.88;;;5.90;99.90;;;;;;5078442;28;20251;-66
2024/01/05 11:56:21;;;;;;;12.00;9.40;;;5.90;99.90;;;;;;5078170;28;20272;-66
2024/01/05 11:58:48;;;;;;;14.45;11.30;;;5.90;99.90;;;;;;5079292;28;20213;-66
2024/01/05 12:01:16;;;;;;;16.10;11.48;;;5.90;99.90;;;;;;5082043;28;20224;-66
2024/01/05 12:03:44;;;;;;;14.52;11.43;;;5.90;99.90;;;;;;5084421;28;20204;-67
2024/01/05 12:06:11;;;;;;;16.35;11.48;;;5.90;99.90;;;;;;5080931;28;20575;-67
2024/01/05 12:08:39;;;;;;;15.52;10.93;;;5.90;99.90;;;;;;5078780;28;20291;-65
2024/01/05 12:11:09;;;;;;;16.13;11.82;;;5.90;99.90;;;;;;5077814;28;20235;-66
2024/01/05 12:13:37;;;;;;;17.40;12.25;;;5.90;99.90;;;;;;5080396;28;20619;-66
2024/01/05 12:16:05;;;;;;;18.60;12.20;;;5.90;99.90;;;;;;5078445;28;20205;-65
2024/01/05 12:18:33;;;;;;;14.05;11.73;;;5.90;99.90;;;;;;5077392;28;20204;-65
2024/01/05 12:21:01;;;;;;;17.20;12.40;;;5.90;99.90;;;;;;5078965;28;20232;-66
2024/01/05 12:23:29;;;;;;;21.70;12.70;;;5.90;99.90;;;;;;5078532;28;20256;-66
2024/01/05 12:26:04;;;;;;;16.50;12.50;;;5.90;99.90;;;;;;5078357;28;20208;-65
2024/01/05 12:28:33;;;;;;;18.35;13.43;;;5.90;99.90;;;;;;5079627;28;20239;-69
2024/01/05 12:31:00;;;;;;;19.75;13.60;;;5.90;99.90;;;;;;5080381;28;20225;-67
2024/01/05 12:33:28;;;;;;;18.90;13.95;;;5.90;99.90;;;;;;5080969;28;20221;-66
2024/01/05 12:35:55;;;;;;;20.75;14.18;;;5.90;99.90;;;;;;5081762;28;20744;-67
2024/01/05 12:38:26;;;;;;;18.13;14.40;;;5.80;99.90;;;;;;5081218;28;20609;-65
2024/01/05 12:40:53;;;;;;;22.48;14.93;;;5.80;99.90;;;;;;5081553;28;20215;-67
2024/01/05 12:43:20;;;;;;;17.70;13.30;;;5.80;99.90;;;;;;5080579;28;20242;-66
2024/01/05 12:45:50;;;;;;;20.25;13.65;;;5.80;99.90;;;;;;5080232;28;20299;-67
2024/01/05 12:48:17;;;;;;;20.13;13.95;;;5.80;99.90;;;;;;5080297;28;20562;-65
2024/01/05 12:50:45;;;;;;;24.60;15.88;;;5.70;99.90;;;;;;5080303;28;20201;-65